<?xml version="1.0" encoding="UTF-8" standalone="no" ?>
<gpx xmlns="http://www.topografix.com/GPX/1/1" xmlns:xsi="http://www.w3.org/2001/XMLSchema-instance" xsi:schemaLocation="http://www.topografix.com/GPX/1/1 http://www.topografix.com/GPX/1/1/gpx.xsd" version="1.1" creator="VisuGPX - https://www.visugpx.com">
  <metadata>
    <name>-Tour viso  </name>
    <desc><![CDATA[5 jours départ La roche écroulée
J1 La Roche écroulée / Refuge jervis
J2 Refuge Jervis /  Refuge du Viso
J3 Refuge du Viso /  Refuge Qintino Sella
J4 Refuge Quintino S ella /  Refuge Valenta
J5 Refuge Valenta / La Roche écroulée
]]></desc>
  </metadata>
  <trk>
    <name><![CDATA[2018-02-08-CGP-xYYY-01-tour viso asptt]]></name>
    <desc><![CDATA[5 jours départ La roche écroulée
]]></desc>
    <trkseg>
      <trkpt lat="44.73578" lon="6.99693">
        <ele>1802</ele>
        <time>2018-02-08T18:14:04Z</time>
      </trkpt>
      <trkpt lat="44.74148" lon="6.99405">
        <ele>1760</ele>
        <time>2018-02-08T18:14:09Z</time>
      </trkpt>
      <trkpt lat="44.74723" lon="6.99533">
        <ele>1740</ele>
        <time>2018-02-08T18:14:14Z</time>
      </trkpt>
      <trkpt lat="44.75135" lon="6.99435">
        <ele>1722</ele>
        <time>2018-02-08T18:14:19Z</time>
      </trkpt>
      <trkpt lat="44.75507" lon="6.99247">
        <ele>1707</ele>
        <time>2018-02-08T18:14:24Z</time>
      </trkpt>
      <trkpt lat="44.75742" lon="6.99277">
        <ele>1698</ele>
        <time>2018-02-08T18:14:29Z</time>
      </trkpt>
      <trkpt lat="44.75878" lon="6.99353">
        <ele>1700</ele>
        <time>2018-02-08T18:14:34Z</time>
      </trkpt>
      <trkpt lat="44.75863" lon="6.99555">
        <ele>1731</ele>
        <time>2018-02-08T18:14:39Z</time>
      </trkpt>
      <trkpt lat="44.75907" lon="6.99563">
        <ele>1739</ele>
        <time>2018-02-08T18:14:44Z</time>
      </trkpt>
      <trkpt lat="44.7591" lon="6.99675">
        <ele>1773</ele>
        <time>2018-02-08T18:14:49Z</time>
      </trkpt>
      <trkpt lat="44.7597" lon="6.99628">
        <ele>1767</ele>
        <time>2018-02-08T18:14:54Z</time>
      </trkpt>
      <trkpt lat="44.76035" lon="6.99735">
        <ele>1812</ele>
        <time>2018-02-08T18:14:59Z</time>
      </trkpt>
      <trkpt lat="44.76037" lon="6.99808">
        <ele>1837</ele>
        <time>2018-02-08T18:15:04Z</time>
      </trkpt>
      <trkpt lat="44.76073" lon="6.99855">
        <ele>1857</ele>
        <time>2018-02-08T18:15:09Z</time>
      </trkpt>
      <trkpt lat="44.76003" lon="6.99895">
        <ele>1867</ele>
        <time>2018-02-08T18:15:14Z</time>
      </trkpt>
      <trkpt lat="44.76095" lon="6.99907">
        <ele>1879</ele>
        <time>2018-02-08T18:15:19Z</time>
      </trkpt>
      <trkpt lat="44.7618" lon="7.00018">
        <ele>1921</ele>
        <time>2018-02-08T18:15:24Z</time>
      </trkpt>
      <trkpt lat="44.76125" lon="7.00097">
        <ele>1945</ele>
        <time>2018-02-08T18:15:29Z</time>
      </trkpt>
      <trkpt lat="44.7623" lon="7.00083">
        <ele>1948</ele>
        <time>2018-02-08T18:15:34Z</time>
      </trkpt>
      <trkpt lat="44.76245" lon="7.00157">
        <ele>1971</ele>
        <time>2018-02-08T18:15:39Z</time>
      </trkpt>
      <trkpt lat="44.76268" lon="7.00165">
        <ele>1971</ele>
        <time>2018-02-08T18:15:44Z</time>
      </trkpt>
      <trkpt lat="44.76267" lon="7.00247">
        <ele>1987</ele>
        <time>2018-02-08T18:15:49Z</time>
      </trkpt>
      <trkpt lat="44.76227" lon="7.00285">
        <ele>1997</ele>
        <time>2018-02-08T18:15:54Z</time>
      </trkpt>
      <trkpt lat="44.76268" lon="7.00375">
        <ele>2007</ele>
        <time>2018-02-08T18:15:59Z</time>
      </trkpt>
      <trkpt lat="44.76342" lon="7.00413">
        <ele>2017</ele>
        <time>2018-02-08T18:16:04Z</time>
      </trkpt>
      <trkpt lat="44.76425" lon="7.00323">
        <ele>2018</ele>
        <time>2018-02-08T18:16:09Z</time>
      </trkpt>
      <trkpt lat="44.76455" lon="7.0031">
        <ele>2014</ele>
        <time>2018-02-08T18:16:14Z</time>
      </trkpt>
      <trkpt lat="44.76583" lon="7.00903">
        <ele>2124</ele>
        <time>2018-02-08T18:16:19Z</time>
      </trkpt>
      <trkpt lat="44.76522" lon="7.01203">
        <ele>2183</ele>
        <time>2018-02-08T18:16:24Z</time>
      </trkpt>
      <trkpt lat="44.76425" lon="7.01487">
        <ele>2219</ele>
        <time>2018-02-08T18:16:29Z</time>
      </trkpt>
      <trkpt lat="44.7632" lon="7.0183">
        <ele>2245</ele>
        <time>2018-02-08T18:16:34Z</time>
      </trkpt>
      <trkpt lat="44.76235" lon="7.01877">
        <ele>2271</ele>
        <time>2018-02-08T18:16:39Z</time>
      </trkpt>
      <trkpt lat="44.7623" lon="7.02018">
        <ele>2271</ele>
        <time>2018-02-08T18:16:44Z</time>
      </trkpt>
      <trkpt lat="44.76293" lon="7.021">
        <ele>2280</ele>
        <time>2018-02-08T18:16:49Z</time>
      </trkpt>
      <trkpt lat="44.76503" lon="7.02378">
        <ele>2312</ele>
        <time>2018-02-08T18:16:54Z</time>
      </trkpt>
      <trkpt lat="44.7669" lon="7.0256">
        <ele>2274</ele>
        <time>2018-02-08T18:16:59Z</time>
      </trkpt>
      <trkpt lat="44.7679" lon="7.02833">
        <ele>2189</ele>
        <time>2018-02-08T18:17:04Z</time>
      </trkpt>
      <trkpt lat="44.76833" lon="7.03023">
        <ele>2175</ele>
        <time>2018-02-08T18:17:09Z</time>
      </trkpt>
      <trkpt lat="44.76872" lon="7.02953">
        <ele>2190</ele>
        <time>2018-02-08T18:17:14Z</time>
      </trkpt>
      <trkpt lat="44.76878" lon="7.03083">
        <ele>2163</ele>
        <time>2018-02-08T18:17:19Z</time>
      </trkpt>
      <trkpt lat="44.76918" lon="7.02988">
        <ele>2180</ele>
        <time>2018-02-08T18:17:24Z</time>
      </trkpt>
      <trkpt lat="44.76922" lon="7.03087">
        <ele>2158</ele>
        <time>2018-02-08T18:17:29Z</time>
      </trkpt>
      <trkpt lat="44.76963" lon="7.0301">
        <ele>2135</ele>
        <time>2018-02-08T18:17:34Z</time>
      </trkpt>
      <trkpt lat="44.76948" lon="7.03135">
        <ele>2120</ele>
        <time>2018-02-08T18:17:39Z</time>
      </trkpt>
      <trkpt lat="44.77003" lon="7.03045">
        <ele>2096</ele>
        <time>2018-02-08T18:17:44Z</time>
      </trkpt>
      <trkpt lat="44.76995" lon="7.03187">
        <ele>2075</ele>
        <time>2018-02-08T18:17:49Z</time>
      </trkpt>
      <trkpt lat="44.77033" lon="7.03105">
        <ele>2066</ele>
        <time>2018-02-08T18:17:54Z</time>
      </trkpt>
      <trkpt lat="44.7704" lon="7.03182">
        <ele>2047</ele>
        <time>2018-02-08T18:17:59Z</time>
      </trkpt>
      <trkpt lat="44.7707" lon="7.03095">
        <ele>2044</ele>
        <time>2018-02-08T18:18:04Z</time>
      </trkpt>
      <trkpt lat="44.77037" lon="7.03255">
        <ele>2023</ele>
        <time>2018-02-08T18:18:09Z</time>
      </trkpt>
      <trkpt lat="44.77095" lon="7.03168">
        <ele>2015</ele>
        <time>2018-02-08T18:18:14Z</time>
      </trkpt>
      <trkpt lat="44.77073" lon="7.03345">
        <ele>1957</ele>
        <time>2018-02-08T18:18:19Z</time>
      </trkpt>
      <trkpt lat="44.77147" lon="7.03182">
        <ele>1981</ele>
        <time>2018-02-08T18:18:24Z</time>
      </trkpt>
      <trkpt lat="44.7726" lon="7.0331">
        <ele>1899</ele>
        <time>2018-02-08T18:18:29Z</time>
      </trkpt>
      <trkpt lat="44.77202" lon="7.03348">
        <ele>1897</ele>
        <time>2018-02-08T18:18:34Z</time>
      </trkpt>
      <trkpt lat="44.77235" lon="7.03375">
        <ele>1876</ele>
        <time>2018-02-08T18:18:39Z</time>
      </trkpt>
      <trkpt lat="44.77168" lon="7.03443">
        <ele>1870</ele>
        <time>2018-02-08T18:18:44Z</time>
      </trkpt>
      <trkpt lat="44.77225" lon="7.03482">
        <ele>1842</ele>
        <time>2018-02-08T18:18:49Z</time>
      </trkpt>
      <trkpt lat="44.77158" lon="7.0352">
        <ele>1839</ele>
        <time>2018-02-08T18:18:54Z</time>
      </trkpt>
      <trkpt lat="44.77253" lon="7.03585">
        <ele>1820</ele>
        <time>2018-02-08T18:18:59Z</time>
      </trkpt>
      <trkpt lat="44.77202" lon="7.03593">
        <ele>1817</ele>
        <time>2018-02-08T18:19:04Z</time>
      </trkpt>
      <trkpt lat="44.77243" lon="7.03628">
        <ele>1809</ele>
        <time>2018-02-08T18:19:09Z</time>
      </trkpt>
      <trkpt lat="44.7719" lon="7.03658">
        <ele>1800</ele>
        <time>2018-02-08T18:19:14Z</time>
      </trkpt>
      <trkpt lat="44.7722" lon="7.0368">
        <ele>1794</ele>
        <time>2018-02-08T18:19:19Z</time>
      </trkpt>
      <trkpt lat="44.77143" lon="7.03697">
        <ele>1779</ele>
        <time>2018-02-08T18:19:24Z</time>
      </trkpt>
      <trkpt lat="44.77353" lon="7.04018">
        <ele>1731</ele>
        <time>2018-02-08T18:19:29Z</time>
      </trkpt>
      <trkpt lat="44.77333" lon="7.03907">
        <ele>1744</ele>
        <time>2018-02-08T18:19:34Z</time>
      </trkpt>
      <trkpt lat="44.77123" lon="7.03872">
        <ele>1731</ele>
        <time>2018-02-08T18:19:39Z</time>
      </trkpt>
      <trkpt lat="44.7703" lon="7.03767">
        <ele>1737</ele>
        <time>2018-02-08T18:19:44Z</time>
      </trkpt>
      <trkpt lat="44.7683" lon="7.03817">
        <ele>1720</ele>
        <time>2018-02-08T18:19:49Z</time>
      </trkpt>
      <trkpt lat="44.76397" lon="7.0381">
        <ele>1725</ele>
        <time>2018-02-08T18:19:54Z</time>
      </trkpt>
      <trkpt lat="44.76295" lon="7.03855">
        <ele>1728</ele>
        <time>2018-02-08T18:19:59Z</time>
      </trkpt>
      <trkpt lat="44.76208" lon="7.03832">
        <ele>1735</ele>
        <time>2018-02-08T18:20:04Z</time>
      </trkpt>
      <trkpt lat="44.75882" lon="7.03748">
        <ele>1741</ele>
        <time>2018-02-08T18:20:09Z</time>
      </trkpt>
      <trkpt lat="44.75807" lon="7.03755">
        <ele>1741</ele>
        <time>2018-02-08T18:20:14Z</time>
      </trkpt>
      <trkpt lat="44.75742" lon="7.03778">
        <ele>1742</ele>
        <time>2018-02-08T18:20:19Z</time>
      </trkpt>
      <trkpt lat="44.75578" lon="7.03872">
        <ele>1750</ele>
        <time>2018-02-08T18:20:24Z</time>
      </trkpt>
      <trkpt lat="44.7529" lon="7.03855">
        <ele>1751</ele>
        <time>2018-02-08T18:20:29Z</time>
      </trkpt>
      <trkpt lat="44.75273" lon="7.03912">
        <ele>1745</ele>
        <time>2018-02-08T18:20:34Z</time>
      </trkpt>
      <trkpt lat="44.75035" lon="7.039">
        <ele>1758</ele>
        <time>2018-02-08T18:20:39Z</time>
      </trkpt>
      <trkpt lat="44.7496" lon="7.03842">
        <ele>1778</ele>
        <time>2018-02-08T18:20:44Z</time>
      </trkpt>
      <trkpt lat="44.749" lon="7.03878">
        <ele>1784</ele>
        <time>2018-02-08T18:20:49Z</time>
      </trkpt>
      <trkpt lat="44.74783" lon="7.03793">
        <ele>1827</ele>
        <time>2018-02-08T18:20:54Z</time>
      </trkpt>
      <trkpt lat="44.74813" lon="7.03722">
        <ele>1847</ele>
        <time>2018-02-08T18:20:59Z</time>
      </trkpt>
      <trkpt lat="44.74732" lon="7.03763">
        <ele>1851</ele>
        <time>2018-02-08T18:21:04Z</time>
      </trkpt>
      <trkpt lat="44.74765" lon="7.03668">
        <ele>1890</ele>
        <time>2018-02-08T18:21:09Z</time>
      </trkpt>
      <trkpt lat="44.74665" lon="7.03673">
        <ele>1902</ele>
        <time>2018-02-08T18:21:14Z</time>
      </trkpt>
      <trkpt lat="44.74632" lon="7.03728">
        <ele>1891</ele>
        <time>2018-02-08T18:21:19Z</time>
      </trkpt>
      <trkpt lat="44.74547" lon="7.03695">
        <ele>1946</ele>
        <time>2018-02-08T18:21:24Z</time>
      </trkpt>
      <trkpt lat="44.74425" lon="7.03688">
        <ele>1979</ele>
        <time>2018-02-08T18:21:29Z</time>
      </trkpt>
      <trkpt lat="44.74285" lon="7.03647">
        <ele>2020</ele>
        <time>2018-02-08T18:21:34Z</time>
      </trkpt>
      <trkpt lat="44.73875" lon="7.03703">
        <ele>2078</ele>
        <time>2018-02-08T18:21:39Z</time>
      </trkpt>
      <trkpt lat="44.737" lon="7.0381">
        <ele>2083</ele>
        <time>2018-02-08T18:21:44Z</time>
      </trkpt>
      <trkpt lat="44.73492" lon="7.04013">
        <ele>2093</ele>
        <time>2018-02-08T18:21:49Z</time>
      </trkpt>
      <trkpt lat="44.73417" lon="7.0405">
        <ele>2107</ele>
        <time>2018-02-08T18:21:54Z</time>
      </trkpt>
      <trkpt lat="44.7337" lon="7.04017">
        <ele>2127</ele>
        <time>2018-02-08T18:21:59Z</time>
      </trkpt>
      <trkpt lat="44.73263" lon="7.04008">
        <ele>2171</ele>
        <time>2018-02-08T18:22:04Z</time>
      </trkpt>
      <trkpt lat="44.7322" lon="7.04072">
        <ele>2198</ele>
        <time>2018-02-08T18:22:09Z</time>
      </trkpt>
      <trkpt lat="44.73163" lon="7.04045">
        <ele>2215</ele>
        <time>2018-02-08T18:22:14Z</time>
      </trkpt>
      <trkpt lat="44.7292" lon="7.04192">
        <ele>2307</ele>
        <time>2018-02-08T18:22:19Z</time>
      </trkpt>
      <trkpt lat="44.72818" lon="7.04258">
        <ele>2335</ele>
        <time>2018-02-08T18:22:24Z</time>
      </trkpt>
      <trkpt lat="44.72787" lon="7.0451">
        <ele>2353</ele>
        <time>2018-02-08T18:22:29Z</time>
      </trkpt>
      <trkpt lat="44.72757" lon="7.04542">
        <ele>2361</ele>
        <time>2018-02-08T18:22:34Z</time>
      </trkpt>
      <trkpt lat="44.72745" lon="7.04443">
        <ele>2357</ele>
        <time>2018-02-08T18:22:39Z</time>
      </trkpt>
      <trkpt lat="44.7262" lon="7.04427">
        <ele>2367</ele>
        <time>2018-02-08T18:22:44Z</time>
      </trkpt>
      <trkpt lat="44.72537" lon="7.04273">
        <ele>2401</ele>
        <time>2018-02-08T18:22:49Z</time>
      </trkpt>
      <trkpt lat="44.72535" lon="7.04338">
        <ele>2405</ele>
        <time>2018-02-08T18:22:54Z</time>
      </trkpt>
      <trkpt lat="44.7251" lon="7.04285">
        <ele>2416</ele>
        <time>2018-02-08T18:22:59Z</time>
      </trkpt>
      <trkpt lat="44.72525" lon="7.04348">
        <ele>2413</ele>
        <time>2018-02-08T18:23:04Z</time>
      </trkpt>
      <trkpt lat="44.72485" lon="7.04322">
        <ele>2431</ele>
        <time>2018-02-08T18:23:09Z</time>
      </trkpt>
      <trkpt lat="44.72517" lon="7.04382">
        <ele>2421</ele>
        <time>2018-02-08T18:23:14Z</time>
      </trkpt>
      <trkpt lat="44.72473" lon="7.04347">
        <ele>2438</ele>
        <time>2018-02-08T18:23:19Z</time>
      </trkpt>
      <trkpt lat="44.725" lon="7.04412">
        <ele>2438</ele>
        <time>2018-02-08T18:23:24Z</time>
      </trkpt>
      <trkpt lat="44.72452" lon="7.04472">
        <ele>2458</ele>
        <time>2018-02-08T18:23:29Z</time>
      </trkpt>
      <trkpt lat="44.72412" lon="7.04468">
        <ele>2479</ele>
        <time>2018-02-08T18:23:34Z</time>
      </trkpt>
      <trkpt lat="44.72425" lon="7.04523">
        <ele>2474</ele>
        <time>2018-02-08T18:23:39Z</time>
      </trkpt>
      <trkpt lat="44.7239" lon="7.04482">
        <ele>2487</ele>
        <time>2018-02-08T18:23:44Z</time>
      </trkpt>
      <trkpt lat="44.72392" lon="7.04542">
        <ele>2492</ele>
        <time>2018-02-08T18:23:49Z</time>
      </trkpt>
      <trkpt lat="44.72373" lon="7.04493">
        <ele>2494</ele>
        <time>2018-02-08T18:23:54Z</time>
      </trkpt>
      <trkpt lat="44.72288" lon="7.0454">
        <ele>2529</ele>
        <time>2018-02-08T18:23:59Z</time>
      </trkpt>
      <trkpt lat="44.72283" lon="7.04592">
        <ele>2545</ele>
        <time>2018-02-08T18:24:04Z</time>
      </trkpt>
      <trkpt lat="44.7226" lon="7.04543">
        <ele>2535</ele>
        <time>2018-02-08T18:24:09Z</time>
      </trkpt>
      <trkpt lat="44.72258" lon="7.04613">
        <ele>2560</ele>
        <time>2018-02-08T18:24:14Z</time>
      </trkpt>
      <trkpt lat="44.72068" lon="7.04713">
        <ele>2619</ele>
        <time>2018-02-08T18:24:19Z</time>
      </trkpt>
      <trkpt lat="44.72018" lon="7.04705">
        <ele>2636</ele>
        <time>2018-02-08T18:24:24Z</time>
      </trkpt>
      <trkpt lat="44.72058" lon="7.04758">
        <ele>2634</ele>
        <time>2018-02-08T18:24:29Z</time>
      </trkpt>
      <trkpt lat="44.7202" lon="7.0475">
        <ele>2641</ele>
        <time>2018-02-08T18:24:34Z</time>
      </trkpt>
      <trkpt lat="44.72008" lon="7.0477">
        <ele>2650</ele>
        <time>2018-02-08T18:24:39Z</time>
      </trkpt>
      <trkpt lat="44.71753" lon="7.0495">
        <ele>2786</ele>
        <time>2018-02-08T18:24:44Z</time>
      </trkpt>
      <trkpt lat="44.71793" lon="7.05008">
        <ele>2791</ele>
        <time>2018-02-08T18:24:49Z</time>
      </trkpt>
      <trkpt lat="44.71693" lon="7.05047">
        <ele>2829</ele>
        <time>2018-02-08T18:24:54Z</time>
      </trkpt>
      <trkpt lat="44.71628" lon="7.0492">
        <ele>2810</ele>
        <time>2018-02-08T18:24:59Z</time>
      </trkpt>
      <trkpt lat="44.71525" lon="7.04957">
        <ele>2769</ele>
        <time>2018-02-08T18:25:04Z</time>
      </trkpt>
      <trkpt lat="44.71493" lon="7.04885">
        <ele>2739</ele>
        <time>2018-02-08T18:25:09Z</time>
      </trkpt>
      <trkpt lat="44.71517" lon="7.04742">
        <ele>2715</ele>
        <time>2018-02-08T18:25:14Z</time>
      </trkpt>
      <trkpt lat="44.7147" lon="7.0478">
        <ele>2704</ele>
        <time>2018-02-08T18:25:19Z</time>
      </trkpt>
      <trkpt lat="44.71463" lon="7.04742">
        <ele>2693</ele>
        <time>2018-02-08T18:25:24Z</time>
      </trkpt>
      <trkpt lat="44.71368" lon="7.04818">
        <ele>2677</ele>
        <time>2018-02-08T18:25:29Z</time>
      </trkpt>
      <trkpt lat="44.71272" lon="7.04795">
        <ele>2636</ele>
        <time>2018-02-08T18:25:34Z</time>
      </trkpt>
      <trkpt lat="44.71245" lon="7.0463">
        <ele>2599</ele>
        <time>2018-02-08T18:25:39Z</time>
      </trkpt>
      <trkpt lat="44.7128" lon="7.04533">
        <ele>2591</ele>
        <time>2018-02-08T18:25:44Z</time>
      </trkpt>
      <trkpt lat="44.71103" lon="7.04777">
        <ele>2548</ele>
        <time>2018-02-08T18:25:49Z</time>
      </trkpt>
      <trkpt lat="44.71102" lon="7.04868">
        <ele>2552</ele>
        <time>2018-02-08T18:25:54Z</time>
      </trkpt>
      <trkpt lat="44.71022" lon="7.04913">
        <ele>2521</ele>
        <time>2018-02-08T18:25:59Z</time>
      </trkpt>
      <trkpt lat="44.70868" lon="7.04973">
        <ele>2475</ele>
        <time>2018-02-08T18:26:04Z</time>
      </trkpt>
      <trkpt lat="44.70835" lon="7.0496">
        <ele>2466</ele>
        <time>2018-02-08T18:26:09Z</time>
      </trkpt>
      <trkpt lat="44.70778" lon="7.04887">
        <ele>2449</ele>
        <time>2018-02-08T18:26:14Z</time>
      </trkpt>
      <trkpt lat="44.70653" lon="7.04993">
        <ele>2448</ele>
        <time>2018-02-08T18:26:19Z</time>
      </trkpt>
      <trkpt lat="44.70583" lon="7.04937">
        <ele>2439</ele>
        <time>2018-02-08T18:26:24Z</time>
      </trkpt>
      <trkpt lat="44.70457" lon="7.05063">
        <ele>2455</ele>
        <time>2018-02-08T18:26:29Z</time>
      </trkpt>
      <trkpt lat="44.7043" lon="7.05055">
        <ele>2450</ele>
        <time>2018-02-08T18:26:34Z</time>
      </trkpt>
      <trkpt lat="44.70215" lon="7.05177">
        <ele>2458</ele>
        <time>2018-02-08T18:26:39Z</time>
      </trkpt>
      <trkpt lat="44.70013" lon="7.0513">
        <ele>2450</ele>
        <time>2018-02-08T18:26:44Z</time>
      </trkpt>
      <trkpt lat="44.70053" lon="7.05137">
        <ele>2457</ele>
        <time>2018-02-08T18:26:49Z</time>
      </trkpt>
      <trkpt lat="44.70213" lon="7.05185">
        <ele>2459</ele>
        <time>2018-02-08T18:26:54Z</time>
      </trkpt>
      <trkpt lat="44.7042" lon="7.05063">
        <ele>2451</ele>
        <time>2018-02-08T18:26:59Z</time>
      </trkpt>
      <trkpt lat="44.7046" lon="7.05073">
        <ele>2458</ele>
        <time>2018-02-08T18:27:04Z</time>
      </trkpt>
      <trkpt lat="44.70592" lon="7.04943">
        <ele>2440</ele>
        <time>2018-02-08T18:27:09Z</time>
      </trkpt>
      <trkpt lat="44.70672" lon="7.04988">
        <ele>2448</ele>
        <time>2018-02-08T18:27:14Z</time>
      </trkpt>
      <trkpt lat="44.70733" lon="7.04935">
        <ele>2445</ele>
        <time>2018-02-08T18:27:19Z</time>
      </trkpt>
      <trkpt lat="44.70792" lon="7.04893">
        <ele>2452</ele>
        <time>2018-02-08T18:27:24Z</time>
      </trkpt>
      <trkpt lat="44.70828" lon="7.04952">
        <ele>2464</ele>
        <time>2018-02-08T18:27:29Z</time>
      </trkpt>
      <trkpt lat="44.70798" lon="7.05237">
        <ele>2505</ele>
        <time>2018-02-08T18:27:34Z</time>
      </trkpt>
      <trkpt lat="44.70827" lon="7.05385">
        <ele>2531</ele>
        <time>2018-02-08T18:27:39Z</time>
      </trkpt>
      <trkpt lat="44.7093" lon="7.05432">
        <ele>2564</ele>
        <time>2018-02-08T18:27:44Z</time>
      </trkpt>
      <trkpt lat="44.70968" lon="7.05557">
        <ele>2586</ele>
        <time>2018-02-08T18:27:49Z</time>
      </trkpt>
      <trkpt lat="44.70937" lon="7.05563">
        <ele>2591</ele>
        <time>2018-02-08T18:27:54Z</time>
      </trkpt>
      <trkpt lat="44.70948" lon="7.05595">
        <ele>2598</ele>
        <time>2018-02-08T18:27:59Z</time>
      </trkpt>
      <trkpt lat="44.70917" lon="7.0561">
        <ele>2606</ele>
        <time>2018-02-08T18:28:04Z</time>
      </trkpt>
      <trkpt lat="44.70922" lon="7.05653">
        <ele>2614</ele>
        <time>2018-02-08T18:28:09Z</time>
      </trkpt>
      <trkpt lat="44.71002" lon="7.05745">
        <ele>2645</ele>
        <time>2018-02-08T18:28:14Z</time>
      </trkpt>
      <trkpt lat="44.71145" lon="7.05853">
        <ele>2696</ele>
        <time>2018-02-08T18:28:19Z</time>
      </trkpt>
      <trkpt lat="44.71202" lon="7.05822">
        <ele>2714</ele>
        <time>2018-02-08T18:28:24Z</time>
      </trkpt>
      <trkpt lat="44.71207" lon="7.05782">
        <ele>2714</ele>
        <time>2018-02-08T18:28:29Z</time>
      </trkpt>
      <trkpt lat="44.7123" lon="7.05795">
        <ele>2728</ele>
        <time>2018-02-08T18:28:34Z</time>
      </trkpt>
      <trkpt lat="44.71232" lon="7.05817">
        <ele>2729</ele>
        <time>2018-02-08T18:28:39Z</time>
      </trkpt>
      <trkpt lat="44.71247" lon="7.05763">
        <ele>2737</ele>
        <time>2018-02-08T18:28:44Z</time>
      </trkpt>
      <trkpt lat="44.7125" lon="7.05805">
        <ele>2739</ele>
        <time>2018-02-08T18:28:49Z</time>
      </trkpt>
      <trkpt lat="44.71282" lon="7.05793">
        <ele>2756</ele>
        <time>2018-02-08T18:28:54Z</time>
      </trkpt>
      <trkpt lat="44.7135" lon="7.05968">
        <ele>2798</ele>
        <time>2018-02-08T18:28:59Z</time>
      </trkpt>
      <trkpt lat="44.71333" lon="7.06222">
        <ele>2833</ele>
        <time>2018-02-08T18:29:04Z</time>
      </trkpt>
      <trkpt lat="44.7134" lon="7.0631">
        <ele>2863</ele>
        <time>2018-02-08T18:29:09Z</time>
      </trkpt>
      <trkpt lat="44.7126" lon="7.06467">
        <ele>2867</ele>
        <time>2018-02-08T18:29:14Z</time>
      </trkpt>
      <trkpt lat="44.71223" lon="7.06475">
        <ele>2864</ele>
        <time>2018-02-08T18:29:19Z</time>
      </trkpt>
      <trkpt lat="44.71195" lon="7.0657">
        <ele>2910</ele>
        <time>2018-02-08T18:29:24Z</time>
      </trkpt>
      <trkpt lat="44.71208" lon="7.0674">
        <ele>2922</ele>
        <time>2018-02-08T18:29:29Z</time>
      </trkpt>
      <trkpt lat="44.71258" lon="7.06785">
        <ele>2891</ele>
        <time>2018-02-08T18:29:34Z</time>
      </trkpt>
      <trkpt lat="44.71262" lon="7.06898">
        <ele>2797</ele>
        <time>2018-02-08T18:29:39Z</time>
      </trkpt>
      <trkpt lat="44.71262" lon="7.06988">
        <ele>2750</ele>
        <time>2018-02-08T18:29:44Z</time>
      </trkpt>
      <trkpt lat="44.7098" lon="7.07378">
        <ele>2693</ele>
        <time>2018-02-08T18:29:49Z</time>
      </trkpt>
      <trkpt lat="44.70952" lon="7.0738">
        <ele>2670</ele>
        <time>2018-02-08T18:29:54Z</time>
      </trkpt>
      <trkpt lat="44.70952" lon="7.07327">
        <ele>2686</ele>
        <time>2018-02-08T18:29:59Z</time>
      </trkpt>
      <trkpt lat="44.70917" lon="7.07375">
        <ele>2647</ele>
        <time>2018-02-08T18:30:04Z</time>
      </trkpt>
      <trkpt lat="44.70908" lon="7.07303">
        <ele>2668</ele>
        <time>2018-02-08T18:30:09Z</time>
      </trkpt>
      <trkpt lat="44.70883" lon="7.07353">
        <ele>2637</ele>
        <time>2018-02-08T18:30:14Z</time>
      </trkpt>
      <trkpt lat="44.70788" lon="7.07282">
        <ele>2617</ele>
        <time>2018-02-08T18:30:19Z</time>
      </trkpt>
      <trkpt lat="44.70775" lon="7.07325">
        <ele>2599</ele>
        <time>2018-02-08T18:30:24Z</time>
      </trkpt>
      <trkpt lat="44.70755" lon="7.07325">
        <ele>2590</ele>
        <time>2018-02-08T18:30:29Z</time>
      </trkpt>
      <trkpt lat="44.70748" lon="7.07402">
        <ele>2553</ele>
        <time>2018-02-08T18:30:34Z</time>
      </trkpt>
      <trkpt lat="44.70815" lon="7.07452">
        <ele>2552</ele>
        <time>2018-02-08T18:30:39Z</time>
      </trkpt>
      <trkpt lat="44.70848" lon="7.07563">
        <ele>2506</ele>
        <time>2018-02-08T18:30:44Z</time>
      </trkpt>
      <trkpt lat="44.70912" lon="7.07602">
        <ele>2516</ele>
        <time>2018-02-08T18:30:49Z</time>
      </trkpt>
      <trkpt lat="44.70943" lon="7.0777">
        <ele>2485</ele>
        <time>2018-02-08T18:30:54Z</time>
      </trkpt>
      <trkpt lat="44.70915" lon="7.08025">
        <ele>2461</ele>
        <time>2018-02-08T18:30:59Z</time>
      </trkpt>
      <trkpt lat="44.7087" lon="7.07922">
        <ele>2449</ele>
        <time>2018-02-08T18:31:04Z</time>
      </trkpt>
      <trkpt lat="44.70818" lon="7.07938">
        <ele>2422</ele>
        <time>2018-02-08T18:31:09Z</time>
      </trkpt>
      <trkpt lat="44.70737" lon="7.08147">
        <ele>2382</ele>
        <time>2018-02-08T18:31:14Z</time>
      </trkpt>
      <trkpt lat="44.70727" lon="7.0808">
        <ele>2379</ele>
        <time>2018-02-08T18:31:19Z</time>
      </trkpt>
      <trkpt lat="44.70692" lon="7.08087">
        <ele>2369</ele>
        <time>2018-02-08T18:31:24Z</time>
      </trkpt>
      <trkpt lat="44.70667" lon="7.08183">
        <ele>2352</ele>
        <time>2018-02-08T18:31:29Z</time>
      </trkpt>
      <trkpt lat="44.70647" lon="7.08065">
        <ele>2355</ele>
        <time>2018-02-08T18:31:34Z</time>
      </trkpt>
      <trkpt lat="44.70603" lon="7.08058">
        <ele>2342</ele>
        <time>2018-02-08T18:31:39Z</time>
      </trkpt>
      <trkpt lat="44.70538" lon="7.08175">
        <ele>2317</ele>
        <time>2018-02-08T18:31:44Z</time>
      </trkpt>
      <trkpt lat="44.70497" lon="7.08278">
        <ele>2295</ele>
        <time>2018-02-08T18:31:49Z</time>
      </trkpt>
      <trkpt lat="44.70485" lon="7.08123">
        <ele>2309</ele>
        <time>2018-02-08T18:31:54Z</time>
      </trkpt>
      <trkpt lat="44.70353" lon="7.08223">
        <ele>2277</ele>
        <time>2018-02-08T18:31:59Z</time>
      </trkpt>
      <trkpt lat="44.70297" lon="7.08525">
        <ele>2229</ele>
        <time>2018-02-08T18:32:04Z</time>
      </trkpt>
      <trkpt lat="44.7013" lon="7.08913">
        <ele>2153</ele>
        <time>2018-02-08T18:32:09Z</time>
      </trkpt>
      <trkpt lat="44.70202" lon="7.09145">
        <ele>2087</ele>
        <time>2018-02-08T18:32:14Z</time>
      </trkpt>
      <trkpt lat="44.70032" lon="7.09652">
        <ele>2013</ele>
        <time>2018-02-08T18:32:19Z</time>
      </trkpt>
      <trkpt lat="44.70028" lon="7.09362">
        <ele>2024</ele>
        <time>2018-02-08T18:32:24Z</time>
      </trkpt>
      <trkpt lat="44.70007" lon="7.09345">
        <ele>2026</ele>
        <time>2018-02-08T18:32:29Z</time>
      </trkpt>
      <trkpt lat="44.69993" lon="7.09365">
        <ele>2027</ele>
        <time>2018-02-08T18:32:34Z</time>
      </trkpt>
      <trkpt lat="44.69935" lon="7.09267">
        <ele>2073</ele>
        <time>2018-02-08T18:32:39Z</time>
      </trkpt>
      <trkpt lat="44.69892" lon="7.0936">
        <ele>2076</ele>
        <time>2018-02-08T18:32:44Z</time>
      </trkpt>
      <trkpt lat="44.69842" lon="7.09272">
        <ele>2112</ele>
        <time>2018-02-08T18:32:49Z</time>
      </trkpt>
      <trkpt lat="44.69802" lon="7.09338">
        <ele>2109</ele>
        <time>2018-02-08T18:32:54Z</time>
      </trkpt>
      <trkpt lat="44.69767" lon="7.09295">
        <ele>2118</ele>
        <time>2018-02-08T18:32:59Z</time>
      </trkpt>
      <trkpt lat="44.69595" lon="7.09477">
        <ele>2124</ele>
        <time>2018-02-08T18:33:04Z</time>
      </trkpt>
      <trkpt lat="44.6946" lon="7.09458">
        <ele>2118</ele>
        <time>2018-02-08T18:33:09Z</time>
      </trkpt>
      <trkpt lat="44.69407" lon="7.0951">
        <ele>2130</ele>
        <time>2018-02-08T18:33:14Z</time>
      </trkpt>
      <trkpt lat="44.69362" lon="7.09468">
        <ele>2130</ele>
        <time>2018-02-08T18:33:19Z</time>
      </trkpt>
      <trkpt lat="44.69368" lon="7.0955">
        <ele>2143</ele>
        <time>2018-02-08T18:33:24Z</time>
      </trkpt>
      <trkpt lat="44.69305" lon="7.0948">
        <ele>2140</ele>
        <time>2018-02-08T18:33:29Z</time>
      </trkpt>
      <trkpt lat="44.69217" lon="7.09503">
        <ele>2155</ele>
        <time>2018-02-08T18:33:34Z</time>
      </trkpt>
      <trkpt lat="44.69227" lon="7.09587">
        <ele>2165</ele>
        <time>2018-02-08T18:33:39Z</time>
      </trkpt>
      <trkpt lat="44.6908" lon="7.09633">
        <ele>2199</ele>
        <time>2018-02-08T18:33:44Z</time>
      </trkpt>
      <trkpt lat="44.69163" lon="7.09675">
        <ele>2192</ele>
        <time>2018-02-08T18:33:49Z</time>
      </trkpt>
      <trkpt lat="44.69072" lon="7.09687">
        <ele>2212</ele>
        <time>2018-02-08T18:33:54Z</time>
      </trkpt>
      <trkpt lat="44.69098" lon="7.09718">
        <ele>2216</ele>
        <time>2018-02-08T18:33:59Z</time>
      </trkpt>
      <trkpt lat="44.689" lon="7.09808">
        <ele>2267</ele>
        <time>2018-02-08T18:34:04Z</time>
      </trkpt>
      <trkpt lat="44.68863" lon="7.0982">
        <ele>2259</ele>
        <time>2018-02-08T18:34:09Z</time>
      </trkpt>
      <trkpt lat="44.68815" lon="7.09797">
        <ele>2276</ele>
        <time>2018-02-08T18:34:14Z</time>
      </trkpt>
      <trkpt lat="44.68777" lon="7.0982">
        <ele>2268</ele>
        <time>2018-02-08T18:34:19Z</time>
      </trkpt>
      <trkpt lat="44.68637" lon="7.096">
        <ele>2314</ele>
        <time>2018-02-08T18:34:24Z</time>
      </trkpt>
      <trkpt lat="44.68638" lon="7.09477">
        <ele>2329</ele>
        <time>2018-02-08T18:34:29Z</time>
      </trkpt>
      <trkpt lat="44.68582" lon="7.09435">
        <ele>2334</ele>
        <time>2018-02-08T18:34:34Z</time>
      </trkpt>
      <trkpt lat="44.68397" lon="7.09445">
        <ele>2306</ele>
        <time>2018-02-08T18:34:39Z</time>
      </trkpt>
      <trkpt lat="44.68275" lon="7.09522">
        <ele>2313</ele>
        <time>2018-02-08T18:34:44Z</time>
      </trkpt>
      <trkpt lat="44.6827" lon="7.0946">
        <ele>2328</ele>
        <time>2018-02-08T18:34:49Z</time>
      </trkpt>
      <trkpt lat="44.68243" lon="7.09492">
        <ele>2326</ele>
        <time>2018-02-08T18:34:54Z</time>
      </trkpt>
      <trkpt lat="44.68235" lon="7.09437">
        <ele>2344</ele>
        <time>2018-02-08T18:34:59Z</time>
      </trkpt>
      <trkpt lat="44.68193" lon="7.09467">
        <ele>2352</ele>
        <time>2018-02-08T18:35:04Z</time>
      </trkpt>
      <trkpt lat="44.68192" lon="7.0943">
        <ele>2361</ele>
        <time>2018-02-08T18:35:09Z</time>
      </trkpt>
      <trkpt lat="44.6817" lon="7.09437">
        <ele>2368</ele>
        <time>2018-02-08T18:35:14Z</time>
      </trkpt>
      <trkpt lat="44.68083" lon="7.0954">
        <ele>2390</ele>
        <time>2018-02-08T18:35:19Z</time>
      </trkpt>
      <trkpt lat="44.67983" lon="7.0986">
        <ele>2433</ele>
        <time>2018-02-08T18:35:24Z</time>
      </trkpt>
      <trkpt lat="44.68047" lon="7.1007">
        <ele>2437</ele>
        <time>2018-02-08T18:35:29Z</time>
      </trkpt>
      <trkpt lat="44.68003" lon="7.10057">
        <ele>2448</ele>
        <time>2018-02-08T18:35:34Z</time>
      </trkpt>
      <trkpt lat="44.68032" lon="7.10163">
        <ele>2447</ele>
        <time>2018-02-08T18:35:39Z</time>
      </trkpt>
      <trkpt lat="44.68012" lon="7.10193">
        <ele>2458</ele>
        <time>2018-02-08T18:35:44Z</time>
      </trkpt>
      <trkpt lat="44.67972" lon="7.10142">
        <ele>2464</ele>
        <time>2018-02-08T18:35:49Z</time>
      </trkpt>
      <trkpt lat="44.67913" lon="7.10215">
        <ele>2484</ele>
        <time>2018-02-08T18:35:54Z</time>
      </trkpt>
      <trkpt lat="44.67975" lon="7.10202">
        <ele>2469</ele>
        <time>2018-02-08T18:35:59Z</time>
      </trkpt>
      <trkpt lat="44.67975" lon="7.10237">
        <ele>2475</ele>
        <time>2018-02-08T18:36:04Z</time>
      </trkpt>
      <trkpt lat="44.67967" lon="7.10288">
        <ele>2489</ele>
        <time>2018-02-08T18:36:09Z</time>
      </trkpt>
      <trkpt lat="44.6784" lon="7.10233">
        <ele>2545</ele>
        <time>2018-02-08T18:36:14Z</time>
      </trkpt>
      <trkpt lat="44.67733" lon="7.10253">
        <ele>2598</ele>
        <time>2018-02-08T18:36:19Z</time>
      </trkpt>
      <trkpt lat="44.67637" lon="7.10142">
        <ele>2593</ele>
        <time>2018-02-08T18:36:24Z</time>
      </trkpt>
      <trkpt lat="44.67518" lon="7.10058">
        <ele>2608</ele>
        <time>2018-02-08T18:36:29Z</time>
      </trkpt>
      <trkpt lat="44.67405" lon="7.10015">
        <ele>2626</ele>
        <time>2018-02-08T18:36:34Z</time>
      </trkpt>
      <trkpt lat="44.67357" lon="7.10025">
        <ele>2638</ele>
        <time>2018-02-08T18:36:39Z</time>
      </trkpt>
      <trkpt lat="44.67272" lon="7.10178">
        <ele>2632</ele>
        <time>2018-02-08T18:36:44Z</time>
      </trkpt>
      <trkpt lat="44.67185" lon="7.10283">
        <ele>2636</ele>
        <time>2018-02-08T18:36:49Z</time>
      </trkpt>
      <trkpt lat="44.67207" lon="7.10317">
        <ele>2643</ele>
        <time>2018-02-08T18:36:54Z</time>
      </trkpt>
      <trkpt lat="44.6708" lon="7.10445">
        <ele>2654</ele>
        <time>2018-02-08T18:36:59Z</time>
      </trkpt>
      <trkpt lat="44.67022" lon="7.10452">
        <ele>2654</ele>
        <time>2018-02-08T18:37:04Z</time>
      </trkpt>
      <trkpt lat="44.6694" lon="7.10513">
        <ele>2656</ele>
        <time>2018-02-08T18:37:09Z</time>
      </trkpt>
      <trkpt lat="44.66785" lon="7.1042">
        <ele>2656</ele>
        <time>2018-02-08T18:37:14Z</time>
      </trkpt>
      <trkpt lat="44.66737" lon="7.1058">
        <ele>2637</ele>
        <time>2018-02-08T18:37:19Z</time>
      </trkpt>
      <trkpt lat="44.66657" lon="7.10545">
        <ele>2609</ele>
        <time>2018-02-08T18:37:24Z</time>
      </trkpt>
      <trkpt lat="44.66607" lon="7.10818">
        <ele>2604</ele>
        <time>2018-02-08T18:37:29Z</time>
      </trkpt>
      <trkpt lat="44.66543" lon="7.10947">
        <ele>2617</ele>
        <time>2018-02-08T18:37:34Z</time>
      </trkpt>
      <trkpt lat="44.66553" lon="7.10952">
        <ele>2619</ele>
        <time>2018-02-08T18:37:39Z</time>
      </trkpt>
      <trkpt lat="44.66428" lon="7.11015">
        <ele>2616</ele>
        <time>2018-02-08T18:37:44Z</time>
      </trkpt>
      <trkpt lat="44.66318" lon="7.10955">
        <ele>2598</ele>
        <time>2018-02-08T18:37:49Z</time>
      </trkpt>
      <trkpt lat="44.66177" lon="7.10917">
        <ele>2587</ele>
        <time>2018-02-08T18:37:54Z</time>
      </trkpt>
      <trkpt lat="44.65832" lon="7.10805">
        <ele>2590</ele>
        <time>2018-02-08T18:37:59Z</time>
      </trkpt>
      <trkpt lat="44.6554" lon="7.10728">
        <ele>2607</ele>
        <time>2018-02-08T18:38:04Z</time>
      </trkpt>
      <trkpt lat="44.6536" lon="7.10805">
        <ele>2624</ele>
        <time>2018-02-08T18:38:09Z</time>
      </trkpt>
      <trkpt lat="44.65038" lon="7.11028">
        <ele>2643</ele>
        <time>2018-02-08T18:38:14Z</time>
      </trkpt>
      <trkpt lat="44.64888" lon="7.11102">
        <ele>2680</ele>
        <time>2018-02-08T18:38:19Z</time>
      </trkpt>
      <trkpt lat="44.64877" lon="7.11187">
        <ele>2665</ele>
        <time>2018-02-08T18:38:24Z</time>
      </trkpt>
      <trkpt lat="44.64917" lon="7.11213">
        <ele>2650</ele>
        <time>2018-02-08T18:38:29Z</time>
      </trkpt>
      <trkpt lat="44.64813" lon="7.11282">
        <ele>2677</ele>
        <time>2018-02-08T18:38:34Z</time>
      </trkpt>
      <trkpt lat="44.64657" lon="7.11393">
        <ele>2699</ele>
        <time>2018-02-08T18:38:39Z</time>
      </trkpt>
      <trkpt lat="44.64477" lon="7.11505">
        <ele>2717</ele>
        <time>2018-02-08T18:38:44Z</time>
      </trkpt>
      <trkpt lat="44.64468" lon="7.1156">
        <ele>2710</ele>
        <time>2018-02-08T18:38:49Z</time>
      </trkpt>
      <trkpt lat="44.64377" lon="7.11573">
        <ele>2734</ele>
        <time>2018-02-08T18:38:54Z</time>
      </trkpt>
      <trkpt lat="44.64392" lon="7.11668">
        <ele>2716</ele>
        <time>2018-02-08T18:38:59Z</time>
      </trkpt>
      <trkpt lat="44.64227" lon="7.11707">
        <ele>2724</ele>
        <time>2018-02-08T18:39:04Z</time>
      </trkpt>
      <trkpt lat="44.6416" lon="7.11548">
        <ele>2720</ele>
        <time>2018-02-08T18:39:09Z</time>
      </trkpt>
      <trkpt lat="44.6422" lon="7.11178">
        <ele>2770</ele>
        <time>2018-02-08T18:39:14Z</time>
      </trkpt>
      <trkpt lat="44.64175" lon="7.11088">
        <ele>2755</ele>
        <time>2018-02-08T18:39:19Z</time>
      </trkpt>
      <trkpt lat="44.64223" lon="7.10905">
        <ele>2780</ele>
        <time>2018-02-08T18:39:24Z</time>
      </trkpt>
      <trkpt lat="44.64037" lon="7.10393">
        <ele>2754</ele>
        <time>2018-02-08T18:39:29Z</time>
      </trkpt>
      <trkpt lat="44.63982" lon="7.10007">
        <ele>2741</ele>
        <time>2018-02-08T18:39:34Z</time>
      </trkpt>
      <trkpt lat="44.63698" lon="7.0954">
        <ele>2672</ele>
        <time>2018-02-08T18:39:39Z</time>
      </trkpt>
      <trkpt lat="44.63687" lon="7.09393">
        <ele>2653</ele>
        <time>2018-02-08T18:39:44Z</time>
      </trkpt>
      <trkpt lat="44.63637" lon="7.0945">
        <ele>2627</ele>
        <time>2018-02-08T18:39:49Z</time>
      </trkpt>
      <trkpt lat="44.63625" lon="7.09363">
        <ele>2610</ele>
        <time>2018-02-08T18:39:54Z</time>
      </trkpt>
      <trkpt lat="44.63592" lon="7.09432">
        <ele>2606</ele>
        <time>2018-02-08T18:39:59Z</time>
      </trkpt>
      <trkpt lat="44.636" lon="7.0911">
        <ele>2574</ele>
        <time>2018-02-08T18:40:04Z</time>
      </trkpt>
      <trkpt lat="44.63552" lon="7.0914">
        <ele>2561</ele>
        <time>2018-02-08T18:40:09Z</time>
      </trkpt>
      <trkpt lat="44.63508" lon="7.0899">
        <ele>2536</ele>
        <time>2018-02-08T18:40:14Z</time>
      </trkpt>
      <trkpt lat="44.63397" lon="7.08788">
        <ele>2481</ele>
        <time>2018-02-08T18:40:19Z</time>
      </trkpt>
      <trkpt lat="44.63448" lon="7.08715">
        <ele>2479</ele>
        <time>2018-02-08T18:40:24Z</time>
      </trkpt>
      <trkpt lat="44.63398" lon="7.08712">
        <ele>2453</ele>
        <time>2018-02-08T18:40:29Z</time>
      </trkpt>
      <trkpt lat="44.63463" lon="7.0844">
        <ele>2439</ele>
        <time>2018-02-08T18:40:34Z</time>
      </trkpt>
      <trkpt lat="44.63417" lon="7.0844">
        <ele>2412</ele>
        <time>2018-02-08T18:40:39Z</time>
      </trkpt>
      <trkpt lat="44.63463" lon="7.08372">
        <ele>2440</ele>
        <time>2018-02-08T18:40:44Z</time>
      </trkpt>
      <trkpt lat="44.63397" lon="7.08407">
        <ele>2399</ele>
        <time>2018-02-08T18:40:49Z</time>
      </trkpt>
      <trkpt lat="44.63408" lon="7.08338">
        <ele>2397</ele>
        <time>2018-02-08T18:40:54Z</time>
      </trkpt>
      <trkpt lat="44.63347" lon="7.08308">
        <ele>2371</ele>
        <time>2018-02-08T18:40:59Z</time>
      </trkpt>
      <trkpt lat="44.63325" lon="7.08085">
        <ele>2357</ele>
        <time>2018-02-08T18:41:04Z</time>
      </trkpt>
      <trkpt lat="44.63497" lon="7.086">
        <ele>2486</ele>
        <time>2018-02-08T18:41:09Z</time>
      </trkpt>
      <trkpt lat="44.63408" lon="7.0814">
        <ele>2395</ele>
        <time>2018-02-08T18:41:14Z</time>
      </trkpt>
      <trkpt lat="44.63067" lon="7.07592">
        <ele>2261</ele>
        <time>2018-02-08T18:41:19Z</time>
      </trkpt>
      <trkpt lat="44.62847" lon="7.07058">
        <ele>2105</ele>
        <time>2018-02-08T18:41:24Z</time>
      </trkpt>
      <trkpt lat="44.62902" lon="7.06638">
        <ele>1993</ele>
        <time>2018-02-08T18:41:29Z</time>
      </trkpt>
      <trkpt lat="44.63512" lon="7.06423">
        <ele>1949</ele>
        <time>2018-02-08T18:41:34Z</time>
      </trkpt>
      <trkpt lat="44.63738" lon="7.0627">
        <ele>1984</ele>
        <time>2018-02-08T18:41:39Z</time>
      </trkpt>
      <trkpt lat="44.63908" lon="7.05995">
        <ele>2060</ele>
        <time>2018-02-08T18:41:44Z</time>
      </trkpt>
      <trkpt lat="44.64862" lon="7.06038">
        <ele>2127</ele>
        <time>2018-02-08T18:41:49Z</time>
      </trkpt>
      <trkpt lat="44.65912" lon="7.06038">
        <ele>2289</ele>
        <time>2018-02-08T18:41:54Z</time>
      </trkpt>
      <trkpt lat="44.66443" lon="7.0614">
        <ele>2387</ele>
        <time>2018-02-08T18:41:59Z</time>
      </trkpt>
      <trkpt lat="44.66595" lon="7.06398">
        <ele>2410</ele>
        <time>2018-02-08T18:42:04Z</time>
      </trkpt>
      <trkpt lat="44.666" lon="7.06288">
        <ele>2441</ele>
        <time>2018-02-08T18:42:09Z</time>
      </trkpt>
      <trkpt lat="44.66947" lon="7.0647">
        <ele>2515</ele>
        <time>2018-02-08T18:42:14Z</time>
      </trkpt>
      <trkpt lat="44.6704" lon="7.06538">
        <ele>2529</ele>
        <time>2018-02-08T18:42:19Z</time>
      </trkpt>
      <trkpt lat="44.67057" lon="7.06603">
        <ele>2523</ele>
        <time>2018-02-08T18:42:24Z</time>
      </trkpt>
      <trkpt lat="44.67078" lon="7.06547">
        <ele>2540</ele>
        <time>2018-02-08T18:42:29Z</time>
      </trkpt>
      <trkpt lat="44.67092" lon="7.06597">
        <ele>2537</ele>
        <time>2018-02-08T18:42:34Z</time>
      </trkpt>
      <trkpt lat="44.67112" lon="7.06577">
        <ele>2546</ele>
        <time>2018-02-08T18:42:39Z</time>
      </trkpt>
      <trkpt lat="44.67135" lon="7.06592">
        <ele>2550</ele>
        <time>2018-02-08T18:42:44Z</time>
      </trkpt>
      <trkpt lat="44.67137" lon="7.06552">
        <ele>2555</ele>
        <time>2018-02-08T18:42:49Z</time>
      </trkpt>
      <trkpt lat="44.67167" lon="7.06643">
        <ele>2547</ele>
        <time>2018-02-08T18:42:54Z</time>
      </trkpt>
      <trkpt lat="44.67192" lon="7.06553">
        <ele>2573</ele>
        <time>2018-02-08T18:42:59Z</time>
      </trkpt>
      <trkpt lat="44.67197" lon="7.06648">
        <ele>2558</ele>
        <time>2018-02-08T18:43:04Z</time>
      </trkpt>
      <trkpt lat="44.67223" lon="7.06567">
        <ele>2584</ele>
        <time>2018-02-08T18:43:09Z</time>
      </trkpt>
      <trkpt lat="44.67243" lon="7.06657">
        <ele>2575</ele>
        <time>2018-02-08T18:43:14Z</time>
      </trkpt>
      <trkpt lat="44.67268" lon="7.06595">
        <ele>2604</ele>
        <time>2018-02-08T18:43:19Z</time>
      </trkpt>
      <trkpt lat="44.67287" lon="7.06658">
        <ele>2602</ele>
        <time>2018-02-08T18:43:24Z</time>
      </trkpt>
      <trkpt lat="44.67305" lon="7.06617">
        <ele>2626</ele>
        <time>2018-02-08T18:43:29Z</time>
      </trkpt>
      <trkpt lat="44.67322" lon="7.06687">
        <ele>2620</ele>
        <time>2018-02-08T18:43:34Z</time>
      </trkpt>
      <trkpt lat="44.67338" lon="7.0664">
        <ele>2644</ele>
        <time>2018-02-08T18:43:39Z</time>
      </trkpt>
      <trkpt lat="44.67353" lon="7.06695">
        <ele>2642</ele>
        <time>2018-02-08T18:43:44Z</time>
      </trkpt>
      <trkpt lat="44.67385" lon="7.06643">
        <ele>2681</ele>
        <time>2018-02-08T18:43:49Z</time>
      </trkpt>
      <trkpt lat="44.6745" lon="7.0676">
        <ele>2702</ele>
        <time>2018-02-08T18:43:54Z</time>
      </trkpt>
      <trkpt lat="44.6745" lon="7.067">
        <ele>2711</ele>
        <time>2018-02-08T18:43:59Z</time>
      </trkpt>
      <trkpt lat="44.67578" lon="7.0684">
        <ele>2746</ele>
        <time>2018-02-08T18:44:04Z</time>
      </trkpt>
      <trkpt lat="44.67628" lon="7.06855">
        <ele>2756</ele>
        <time>2018-02-08T18:44:09Z</time>
      </trkpt>
      <trkpt lat="44.67685" lon="7.06832">
        <ele>2779</ele>
        <time>2018-02-08T18:44:14Z</time>
      </trkpt>
      <trkpt lat="44.67648" lon="7.06785">
        <ele>2771</ele>
        <time>2018-02-08T18:44:19Z</time>
      </trkpt>
      <trkpt lat="44.67765" lon="7.06805">
        <ele>2790</ele>
        <time>2018-02-08T18:44:24Z</time>
      </trkpt>
      <trkpt lat="44.6791" lon="7.06853">
        <ele>2832</ele>
        <time>2018-02-08T18:44:29Z</time>
      </trkpt>
      <trkpt lat="44.6799" lon="7.07005">
        <ele>2825</ele>
        <time>2018-02-08T18:44:34Z</time>
      </trkpt>
      <trkpt lat="44.68092" lon="7.06892">
        <ele>2800</ele>
        <time>2018-02-08T18:44:39Z</time>
      </trkpt>
      <trkpt lat="44.6825" lon="7.06623">
        <ele>2738</ele>
        <time>2018-02-08T18:44:44Z</time>
      </trkpt>
      <trkpt lat="44.68517" lon="7.06132">
        <ele>2636</ele>
        <time>2018-02-08T18:44:49Z</time>
      </trkpt>
      <trkpt lat="44.68517" lon="7.06295">
        <ele>2600</ele>
        <time>2018-02-08T18:44:54Z</time>
      </trkpt>
      <trkpt lat="44.68588" lon="7.06167">
        <ele>2567</ele>
        <time>2018-02-08T18:44:59Z</time>
      </trkpt>
      <trkpt lat="44.6858" lon="7.06563">
        <ele>2532</ele>
        <time>2018-02-08T18:45:04Z</time>
      </trkpt>
      <trkpt lat="44.68603" lon="7.06615">
        <ele>2527</ele>
        <time>2018-02-08T18:45:09Z</time>
      </trkpt>
      <trkpt lat="44.68653" lon="7.06563">
        <ele>2520</ele>
        <time>2018-02-08T18:45:14Z</time>
      </trkpt>
      <trkpt lat="44.68678" lon="7.06482">
        <ele>2516</ele>
        <time>2018-02-08T18:45:19Z</time>
      </trkpt>
      <trkpt lat="44.68742" lon="7.06447">
        <ele>2509</ele>
        <time>2018-02-08T18:45:24Z</time>
      </trkpt>
      <trkpt lat="44.68788" lon="7.06243">
        <ele>2489</ele>
        <time>2018-02-08T18:45:29Z</time>
      </trkpt>
      <trkpt lat="44.689" lon="7.06058">
        <ele>2457</ele>
        <time>2018-02-08T18:45:34Z</time>
      </trkpt>
      <trkpt lat="44.68968" lon="7.05983">
        <ele>2452</ele>
        <time>2018-02-08T18:45:39Z</time>
      </trkpt>
      <trkpt lat="44.69065" lon="7.05495">
        <ele>2410</ele>
        <time>2018-02-08T18:45:44Z</time>
      </trkpt>
      <trkpt lat="44.69128" lon="7.052">
        <ele>2370</ele>
        <time>2018-02-08T18:45:49Z</time>
      </trkpt>
      <trkpt lat="44.69415" lon="7.04972">
        <ele>2300</ele>
        <time>2018-02-08T18:45:54Z</time>
      </trkpt>
      <trkpt lat="44.69658" lon="7.04667">
        <ele>2252</ele>
        <time>2018-02-08T18:45:59Z</time>
      </trkpt>
      <trkpt lat="44.6994" lon="7.0434">
        <ele>2203</ele>
        <time>2018-02-08T18:46:04Z</time>
      </trkpt>
      <trkpt lat="44.70158" lon="7.04215">
        <ele>2198</ele>
        <time>2018-02-08T18:46:09Z</time>
      </trkpt>
      <trkpt lat="44.7048" lon="7.03953">
        <ele>2167</ele>
        <time>2018-02-08T18:46:14Z</time>
      </trkpt>
      <trkpt lat="44.70553" lon="7.0381">
        <ele>2164</ele>
        <time>2018-02-08T18:46:19Z</time>
      </trkpt>
      <trkpt lat="44.70703" lon="7.03733">
        <ele>2167</ele>
        <time>2018-02-08T18:46:24Z</time>
      </trkpt>
      <trkpt lat="44.70748" lon="7.03523">
        <ele>2158</ele>
        <time>2018-02-08T18:46:29Z</time>
      </trkpt>
      <trkpt lat="44.70857" lon="7.03355">
        <ele>2163</ele>
        <time>2018-02-08T18:46:34Z</time>
      </trkpt>
      <trkpt lat="44.70883" lon="7.03228">
        <ele>2149</ele>
        <time>2018-02-08T18:46:39Z</time>
      </trkpt>
      <trkpt lat="44.70907" lon="7.03197">
        <ele>2155</ele>
        <time>2018-02-08T18:46:44Z</time>
      </trkpt>
      <trkpt lat="44.70867" lon="7.03197">
        <ele>2135</ele>
        <time>2018-02-08T18:46:49Z</time>
      </trkpt>
      <trkpt lat="44.70912" lon="7.03098">
        <ele>2142</ele>
        <time>2018-02-08T18:46:54Z</time>
      </trkpt>
      <trkpt lat="44.70888" lon="7.03085">
        <ele>2132</ele>
        <time>2018-02-08T18:46:59Z</time>
      </trkpt>
      <trkpt lat="44.70902" lon="7.03025">
        <ele>2124</ele>
        <time>2018-02-08T18:47:04Z</time>
      </trkpt>
      <trkpt lat="44.70848" lon="7.03075">
        <ele>2117</ele>
        <time>2018-02-08T18:47:09Z</time>
      </trkpt>
      <trkpt lat="44.71025" lon="7.02657">
        <ele>2051</ele>
        <time>2018-02-08T18:47:14Z</time>
      </trkpt>
      <trkpt lat="44.71115" lon="7.02547">
        <ele>2040</ele>
        <time>2018-02-08T18:47:19Z</time>
      </trkpt>
      <trkpt lat="44.71168" lon="7.0253">
        <ele>2039</ele>
        <time>2018-02-08T18:47:24Z</time>
      </trkpt>
      <trkpt lat="44.71193" lon="7.02403">
        <ele>2034</ele>
        <time>2018-02-08T18:47:29Z</time>
      </trkpt>
      <trkpt lat="44.71273" lon="7.02222">
        <ele>2021</ele>
        <time>2018-02-08T18:47:34Z</time>
      </trkpt>
      <trkpt lat="44.71445" lon="7.02157">
        <ele>2022</ele>
        <time>2018-02-08T18:47:39Z</time>
      </trkpt>
      <trkpt lat="44.71495" lon="7.02078">
        <ele>2019</ele>
        <time>2018-02-08T18:47:44Z</time>
      </trkpt>
      <trkpt lat="44.71582" lon="7.02035">
        <ele>2018</ele>
        <time>2018-02-08T18:47:49Z</time>
      </trkpt>
      <trkpt lat="44.71693" lon="7.01777">
        <ele>2004</ele>
        <time>2018-02-08T18:47:54Z</time>
      </trkpt>
      <trkpt lat="44.71948" lon="7.01463">
        <ele>1999</ele>
        <time>2018-02-08T18:47:59Z</time>
      </trkpt>
      <trkpt lat="44.7213" lon="7.01348">
        <ele>1985</ele>
        <time>2018-02-08T18:48:04Z</time>
      </trkpt>
      <trkpt lat="44.72358" lon="7.01137">
        <ele>1980</ele>
        <time>2018-02-08T18:48:09Z</time>
      </trkpt>
      <trkpt lat="44.72463" lon="7.00867">
        <ele>1974</ele>
        <time>2018-02-08T18:48:14Z</time>
      </trkpt>
      <trkpt lat="44.7247" lon="7.00813">
        <ele>1970</ele>
        <time>2018-02-08T18:48:19Z</time>
      </trkpt>
      <trkpt lat="44.72473" lon="7.00772">
        <ele>1966</ele>
        <time>2018-02-08T18:48:24Z</time>
      </trkpt>
      <trkpt lat="44.72518" lon="7.0075">
        <ele>1957</ele>
        <time>2018-02-08T18:48:29Z</time>
      </trkpt>
      <trkpt lat="44.72565" lon="7.00683">
        <ele>1949</ele>
        <time>2018-02-08T18:48:34Z</time>
      </trkpt>
      <trkpt lat="44.72603" lon="7.00697">
        <ele>1957</ele>
        <time>2018-02-08T18:48:39Z</time>
      </trkpt>
      <trkpt lat="44.72645" lon="7.00605">
        <ele>1940</ele>
        <time>2018-02-08T18:48:44Z</time>
      </trkpt>
      <trkpt lat="44.72752" lon="7.00577">
        <ele>1945</ele>
        <time>2018-02-08T18:48:49Z</time>
      </trkpt>
      <trkpt lat="44.72917" lon="7.0035">
        <ele>1922</ele>
        <time>2018-02-08T18:48:54Z</time>
      </trkpt>
      <trkpt lat="44.729" lon="7.00292">
        <ele>1910</ele>
        <time>2018-02-08T18:48:59Z</time>
      </trkpt>
      <trkpt lat="44.72937" lon="7.00225">
        <ele>1902</ele>
        <time>2018-02-08T18:49:04Z</time>
      </trkpt>
      <trkpt lat="44.72945" lon="7.00175">
        <ele>1899</ele>
        <time>2018-02-08T18:49:09Z</time>
      </trkpt>
      <trkpt lat="44.73018" lon="7.00083">
        <ele>1896</ele>
        <time>2018-02-08T18:49:14Z</time>
      </trkpt>
      <trkpt lat="44.73175" lon="6.99928">
        <ele>1889</ele>
        <time>2018-02-08T18:49:19Z</time>
      </trkpt>
      <trkpt lat="44.73268" lon="6.99903">
        <ele>1862</ele>
        <time>2018-02-08T18:49:24Z</time>
      </trkpt>
      <trkpt lat="44.73268" lon="6.99873">
        <ele>1870</ele>
        <time>2018-02-08T18:49:29Z</time>
      </trkpt>
      <trkpt lat="44.73327" lon="6.9986">
        <ele>1858</ele>
        <time>2018-02-08T18:49:34Z</time>
      </trkpt>
      <trkpt lat="44.73493" lon="6.99742">
        <ele>1815</ele>
        <time>2018-02-08T18:49:39Z</time>
      </trkpt>
      <trkpt lat="44.73598" lon="6.99682">
        <ele>1799</ele>
        <time>2018-02-08T18:49:44Z</time>
      </trkpt>
      <trkpt lat="44.7367" lon="6.9969">
        <ele>1789</ele>
        <time>2018-02-08T18:49:49Z</time>
      </trkpt>
    </trkseg>
  </trk>
</gpx>